Terminal Aerodrome Forecast
Issued by NWS Austin/San Antonio, TX

Home | Current Version | Previous Version | Text Only | Print | Product List | Glossary On
Versions: 1 2 3 4 5 6 7 8 9 10 11 12 13 14 15 16 17 18 19
000
FTUS44 KEWX 222345
TAFSAT
TAF
KSAT 222345Z 2300/2406 15012KT P6SM FEW050 FEW250
     FM230600 16008KT P6SM BKN015
     FM230800 16008KT 4SM BR OVC007
     FM231400 17012KT P6SM BKN012
     FM231600 18018G28KT P6SM BKN250=

USA.gov is the U.S. government's official web portal to all federal, state and local government web resources and services.